Time;durP1;ratioP1;P1;durP2;ratioP2;P2;SDS_P1;SDS_P2;PMS_P1;PMS_P2;Temp;Humidity;BMP_temperature;BMP_pressure;BME280_temperature;BME280_humidity;BME280_pressure;Samples;Min_cycle;Max_cycle;Signal;HPM_P1;HPM_P2
2023/01/17 05:14:50;;;;;;;30.77;15.23;;;;;;;3.50;100.00;97886.25;5559362;32;237128;-87
2023/01/17 05:17:54;;;;;;;28.35;15.05;;;;;;;3.51;100.00;97890.56;5545686;32;33538;-87
2023/01/17 05:21:03;;;;;;;29.75;13.23;;;;;;;3.54;100.00;97887.75;5547916;32;33856;-88
2023/01/17 05:24:06;;;;;;;20.75;11.40;;;;;;;3.61;100.00;97882.97;5551908;32;35385;-87
2023/01/17 05:27:10;;;;;;;18.52;9.35;;;;;;;3.70;100.00;97889.44;5560776;32;35054;-87
2023/01/17 05:30:13;;;;;;;17.70;9.55;;;;;;;3.69;100.00;97879.88;5555774;32;34653;-87
2023/01/17 05:33:16;;;;;;;14.52;8.77;;;;;;;3.72;100.00;97888.41;5544039;32;33761;-87
2023/01/17 05:36:18;;;;;;;17.98;9.45;;;;;;;3.76;100.00;97889.06;5544172;32;34726;-87
2023/01/17 05:39:22;;;;;;;16.00;9.00;;;;;;;3.80;100.00;97890.56;5545490;32;33941;-87
2023/01/17 05:42:25;;;;;;;13.68;8.52;;;;;;;3.85;100.00;97890.28;5548927;32;34449;-87
2023/01/17 05:45:30;;;;;;;13.93;8.30;;;;;;;3.91;100.00;97889.87;5554199;32;34805;-91
2023/01/17 05:48:33;;;;;;;14.38;8.52;;;;;;;3.95;100.00;97899.25;5553559;32;34231;-92
2023/01/17 05:51:36;;;;;;;15.55;8.27;;;;;;;3.93;100.00;97902.91;5545751;32;33556;-88
2023/01/17 05:54:39;;;;;;;12.82;8.07;;;;;;;3.96;100.00;97908.81;5547665;32;33669;-88
2023/01/17 05:57:42;;;;;;;15.27;8.57;;;;;;;3.97;100.00;97920.16;5548303;32;34267;-87
2023/01/17 06:00:45;;;;;;;12.77;7.90;;;;;;;4.03;100.00;97920.59;5547338;32;33762;-88
2023/01/17 06:03:48;;;;;;;13.32;8.73;;;;;;;4.02;100.00;97932.03;5544653;32;33812;-88
2023/01/17 06:06:51;;;;;;;13.23;7.37;;;;;;;4.08;100.00;97927.34;5544110;32;32535;-88
2023/01/17 06:09:54;;;;;;;13.43;7.40;;;;;;;4.06;100.00;97924.81;5544922;32;34596;-88
2023/01/17 06:13:11;;;;;;;10.95;6.03;;;;;;;3.99;100.00;97934.00;5549728;32;34035;-88
2023/01/17 06:16:14;;;;;;;13.07;6.87;;;;;;;4.06;100.00;97944.97;5537535;32;33773;-88
2023/01/17 06:19:17;;;;;;;8.80;5.37;;;;;;;3.99;100.00;97942.75;5540464;32;33756;-88
2023/01/17 06:22:20;;;;;;;7.32;5.05;;;;;;;4.03;100.00;97938.97;5543595;32;34183;-88
2023/01/17 06:25:22;;;;;;;8.10;5.12;;;;;;;4.08;100.00;97943.09;5524469;32;34467;-88
2023/01/17 06:28:25;;;;;;;8.70;4.90;;;;;;;3.98;100.00;97945.44;5529800;32;34143;-87
2023/01/17 06:31:28;;;;;;;7.82;4.95;;;;;;;4.06;100.00;97951.06;5519214;32;34723;-87
2023/01/17 06:34:31;;;;;;;7.80;4.53;;;;;;;3.97;100.00;97944.59;5528173;32;33944;-88
2023/01/17 06:37:33;;;;;;;7.82;4.68;;;;;;;3.96;100.00;97949.94;5531338;32;34862;-88
2023/01/17 06:40:36;;;;;;;6.65;4.53;;;;;;;4.00;100.00;97949.66;5530439;32;34156;-88
2023/01/17 06:43:39;;;;;;;6.90;4.90;;;;;;;4.00;100.00;97957.53;5521011;32;34967;-88
2023/01/17 06:46:42;;;;;;;7.43;4.65;;;;;;;4.01;100.00;97969.72;5516205;32;35221;-88
2023/01/17 06:49:45;;;;;;;5.90;4.53;;;;;;;4.01;100.00;97976.72;5527138;32;33691;-88
2023/01/17 06:53:02;;;;;;;6.20;4.22;;;;;;;3.98;100.00;97996.13;5512290;32;33709;-88
2023/01/17 06:56:05;;;;;;;7.53;4.00;;;;;;;4.09;100.00;98005.13;5512867;32;33949;-88
2023/01/17 06:59:08;;;;;;;5.05;3.50;;;;;;;4.07;100.00;98010.44;5520064;32;33585;-88
2023/01/17 07:02:10;;;;;;;3.72;3.12;;;;;;;3.99;100.00;98017.97;5522400;32;34432;-88
2023/01/17 07:05:15;;;;;;;5.18;3.62;;;;;;;4.02;100.00;98018.63;5521628;32;33831;-88
2023/01/17 07:08:18;;;;;;;5.05;3.53;;;;;;;3.91;100.00;98021.91;5513375;32;33967;-88
2023/01/17 07:11:22;;;;;;;5.43;3.67;;;;;;;4.02;100.00;98030.91;5526903;32;34461;-87
2023/01/17 07:14:24;;;;;;;4.50;3.42;;;;;;;4.05;100.00;98033.31;5531330;32;33812;-87
2023/01/17 07:17:27;;;;;;;8.70;4.22;;;;;;;4.01;100.00;98043.16;5524250;32;33878;-87
2023/01/17 07:20:31;;;;;;;5.18;4.20;;;;;;;4.11;100.00;98045.22;5532894;32;33897;-87
2023/01/17 07:23:33;;;;;;;5.37;4.07;;;;;;;4.05;100.00;98051.69;5524805;32;35725;-88
2023/01/17 07:26:38;;;;;;;5.93;4.35;;;;;;;4.10;100.00;98059.28;5531021;32;34271;-87
2023/01/17 07:29:41;;;;;;;5.75;3.95;;;;;;;4.02;100.00;98055.34;5514035;32;34319;-87
2023/01/17 07:32:51;;;;;;;6.57;4.00;;;;;;;3.93;100.00;98058.53;5516645;32;32476;-87
2023/01/17 07:35:54;;;;;;;4.50;3.85;;;;;;;3.88;100.00;98060.59;5519542;32;34009;-88
2023/01/17 07:38:56;;;;;;;4.40;3.47;;;;;;;3.83;100.00;98068.69;5513044;32;33924;-87
2023/01/17 07:41:59;;;;;;;6.40;3.25;;;;;;;3.75;100.00;98065.69;5525107;32;33996;-88
2023/01/17 07:45:02;;;;;;;3.72;3.08;;;;;;;3.71;100.00;98077.28;5518626;32;34108;-91
2023/01/17 07:48:05;;;;;;;3.55;2.95;;;;;;;3.63;100.00;98094.31;5515040;32;33059;-91
2023/01/17 07:51:08;;;;;;;4.43;2.87;;;;;;;3.62;100.00;98104.91;5528772;32;35146;-91
2023/01/17 07:54:11;;;;;;;2.53;2.12;;;;;;;3.55;100.00;98114.91;5538720;32;33908;-87
2023/01/17 07:57:14;;;;;;;2.90;1.92;;;;;;;3.42;100.00;98119.97;5523392;32;34367;-87
2023/01/17 08:00:17;;;;;;;3.67;2.50;;;;;;;3.38;100.00;98126.34;5526227;32;34717;-87
2023/01/17 08:03:20;;;;;;;3.78;2.00;;;;;;;3.55;100.00;98135.00;5518811;32;33488;-86
2023/01/17 08:06:24;;;;;;;2.97;1.83;;;;;;;3.52;100.00;98127.34;5529522;32;34147;-89
2023/01/17 08:09:27;;;;;;;3.47;2.10;;;;;;;3.59;100.00;98136.53;5515876;32;33700;-88
2023/01/17 08:12:30;;;;;;;1.70;1.58;;;;;;;3.58;100.00;98140.09;5532782;32;33836;-88
2023/01/17 08:15:33;;;;;;;1.73;1.52;;;;;;;3.55;100.00;98141.13;5523891;32;33711;-88
2023/01/17 08:18:36;;;;;;;1.10;1.00;;;;;;;3.48;100.00;98145.03;5524430;32;34898;-88
2023/01/17 08:21:39;;;;;;;2.22;1.15;;;;;;;3.34;100.00;98162.38;5527967;32;33682;-88
2023/01/17 08:24:43;;;;;;;0.93;0.93;;;;;;;3.44;100.00;98161.84;5529327;32;34279;-89
2023/01/17 08:27:46;;;;;;;1.00;1.00;;;;;;;3.35;100.00;98166.69;5541285;32;34043;-89
2023/01/17 08:30:48;;;;;;;0.95;0.90;;;;;;;3.56;100.00;98170.81;5537823;32;34771;-87
2023/01/17 08:37:29;;;;;;;2.17;1.50;;;;;;;3.93;100.00;98176.56;1493069;26;20097;-89
2023/01/17 08:40:32;;;;;;;1.30;1.20;;;;;;;3.95;100.00;98185.19;5540930;32;34287;-90
2023/01/17 08:43:35;;;;;;;1.60;1.33;;;;;;;4.06;100.00;98192.44;5536190;32;33999;-89
2023/01/17 08:46:38;;;;;;;0.75;0.75;;;;;;;4.17;100.00;98192.66;5542534;32;34331;-90
2023/01/17 08:56:51;;;;;;;2.08;1.73;;;;;;;4.49;100.00;98185.59;2289422;26;20078;-89
2023/01/17 09:11:09;;;;;;;1.25;1.12;;;;;;;3.93;100.00;98188.84;2399868;30;20370;-90
2023/01/17 09:14:13;;;;;;;1.52;1.30;;;;;;;3.67;100.00;98184.12;5525930;32;34370;-89
2023/01/17 09:17:15;;;;;;;1.67;1.25;;;;;;;3.76;100.00;98195.88;5512577;32;34086;-89
2023/01/17 09:20:18;;;;;;;1.30;1.20;;;;;;;3.78;100.00;98205.34;5512938;32;33874;-88
2023/01/17 09:23:22;;;;;;;1.00;0.98;;;;;;;3.80;100.00;98207.91;5512158;32;33884;-88
2023/01/17 09:26:27;;;;;;;2.85;1.50;;;;;;;3.73;100.00;98202.16;5510784;32;35208;-88
2023/01/17 09:29:30;;;;;;;2.08;1.55;;;;;;;3.80;100.00;98212.28;5514728;32;33798;-87
2023/01/17 09:32:33;;;;;;;2.47;1.48;;;;;;;5.60;100.00;98212.09;5520983;32;33837;-87
2023/01/17 09:35:36;;;;;;;1.33;1.00;;;;;;;10.15;100.00;98208.31;5516854;32;33817;-91
2023/01/17 09:38:39;;;;;;;1.23;1.12;;;;;;;10.84;93.38;98218.56;5517564;32;33943;-91
2023/01/17 09:42:06;;;;;;;0.88;0.88;;;;;;;12.52;85.69;98225.94;5519339;32;34281;-89
2023/01/17 09:45:17;;;;;;;1.20;0.90;;;;;;;14.70;73.47;98230.94;5530803;32;32243;-87
2023/01/17 09:48:30;;;;;;;1.12;1.02;;;;;;;15.50;66.99;98227.25;5522981;32;33765;-86
2023/01/17 09:51:35;;;;;;;1.05;0.95;;;;;;;16.76;60.73;98233.63;5508880;32;34538;-86
2023/01/17 09:54:40;;;;;;;2.17;0.88;;;;;;;18.88;51.02;98237.44;5519097;32;33858;-86
2023/01/17 09:58:01;;;;;;;1.75;1.00;;;;;;;20.21;41.07;98241.25;5511762;32;33833;-88
2023/01/17 10:01:16;;;;;;;0.90;0.85;;;;;;;18.68;44.53;98254.06;5515977;32;32455;-87
2023/01/17 10:04:54;;;;;;;0.90;0.90;;;;;;;19.13;43.18;98245.28;5522837;32;34828;-86
2023/01/17 10:08:15;;;;;;;1.58;1.33;;;;;;;16.38;47.56;98256.37;5488791;32;33947;-88
2023/01/17 10:11:33;;;;;;;1.15;1.00;;;;;;;14.95;56.18;98253.31;5518216;32;33660;-88
2023/01/17 10:15:01;;;;;;;1.60;1.40;;;;;;;13.72;59.31;98268.03;5520961;32;35181;-88
2023/01/17 10:18:27;;;;;;;1.02;0.80;;;;;;;12.29;64.19;98270.59;5510970;32;33915;-88
2023/01/17 10:22:36;;;;;;;1.60;1.50;;;;;;;10.65;73.80;98259.91;5515745;32;33269;-88
2023/01/17 10:25:46;;;;;;;1.00;0.90;;;;;;;10.95;74.81;98260.09;5452831;32;33884;-88
2023/01/17 10:28:51;;;;;;;1.63;1.40;;;;;;;10.02;80.17;98271.22;5446650;32;31564;-88
2023/01/17 10:31:59;;;;;;;1.73;1.08;;;;;;;10.22;80.47;98270.41;5459505;32;34644;-86
2023/01/17 10:35:15;;;;;;;1.50;1.35;;;;;;;9.76;80.30;98261.75;5460650;32;34417;-87
2023/01/17 10:38:20;;;;;;;2.58;1.60;;;;;;;9.34;87.55;98256.28;5436723;32;34049;-87
2023/01/17 10:41:38;;;;;;;2.37;1.90;;;;;;;9.25;91.63;98247.25;5432905;32;35250;-91
2023/01/17 10:45:02;;;;;;;2.03;1.75;;;;;;;9.70;90.11;98244.56;5439924;32;34507;-87
2023/01/17 10:48:27;;;;;;;2.58;1.98;;;;;;;9.79;88.10;98240.34;5451540;32;33833;-87
2023/01/17 10:51:48;;;;;;;2.08;1.87;;;;;;;9.31;87.97;98233.56;5457582;32;33863;-87
2023/01/17 10:55:38;;;;;;;2.22;1.70;;;;;;;9.27;90.30;98240.03;5463543;32;32681;-87
2023/01/17 10:58:41;;;;;;;2.20;1.80;;;;;;;9.20;93.79;98230.91;5526191;32;34985;-87
2023/01/17 11:01:44;;;;;;;3.90;2.00;;;;;;;8.83;91.67;98231.94;5529493;32;34540;-89
2023/01/17 11:04:53;;;;;;;3.28;1.75;;;;;;;9.32;93.76;98216.72;5545630;26;33753;-89
2023/01/17 11:08:22;;;;;;;1.60;1.50;;;;;;;9.77;90.85;98209.66;5523102;32;34547;-87
2023/01/17 11:11:31;;;;;;;1.67;1.58;;;;;;;10.24;85.24;98210.19;5521418;32;35038;-87
2023/01/17 11:14:34;;;;;;;1.70;1.50;;;;;;;9.92;85.14;98205.72;5519387;32;33878;-88
2023/01/17 11:17:51;;;;;;;1.45;1.35;;;;;;;9.88;91.65;98191.09;5525366;32;34171;-88
2023/01/17 11:21:19;;;;;;;4.37;1.55;;;;;;;9.98;89.20;98185.88;5530579;32;35333;-89
2023/01/17 11:24:36;;;;;;;1.75;1.45;;;;;;;10.32;88.39;98191.00;5546838;32;32972;-88
2023/01/17 11:27:39;;;;;;;1.52;1.42;;;;;;;11.19;70.88;98196.09;5544527;32;33756;-88
2023/01/17 11:30:51;;;;;;;2.80;1.80;;;;;;;12.77;64.03;98189.06;5520816;32;33800;-88
2023/01/17 11:34:30;;;;;;;1.50;1.40;;;;;;;12.42;65.80;98182.56;5522578;32;33977;-90
2023/01/17 11:37:34;;;;;;;1.10;1.08;;;;;;;10.34;72.24;98182.91;5495804;32;33984;-88
2023/01/17 11:40:41;;;;;;;1.48;1.17;;;;;;;9.44;83.50;98177.81;5525567;32;34113;-88
2023/01/17 11:43:56;;;;;;;1.48;1.37;;;;;;;10.52;73.24;98162.84;5538744;32;33940;-87
2023/01/17 11:47:10;;;;;;;2.40;1.20;;;;;;;11.96;63.45;98153.03;5549627;32;32430;-87
2023/01/17 11:50:23;;;;;;;2.17;1.00;;;;;;;11.34;63.52;98148.78;5529838;32;33925;-91
2023/01/17 11:53:33;;;;;;;2.20;1.40;;;;;;;10.64;66.34;98152.16;5536589;32;33936;-89
2023/01/17 11:56:36;;;;;;;5.37;1.10;;;;;;;10.03;68.60;98164.28;5526577;32;34220;-88
2023/01/17 11:59:43;;;;;;;1.80;1.17;;;;;;;9.15;69.08;98154.53;5537666;32;33048;-87
2023/01/17 12:03:38;;;;;;;1.37;1.27;;;;;;;9.05;72.62;98154.44;5523412;32;34751;-88
2023/01/17 12:06:48;;;;;;;1.37;1.17;;;;;;;8.80;68.69;98184.63;5515943;32;34155;-88
2023/01/17 12:10:11;;;;;;;2.50;1.65;;;;;;;8.74;69.08;98204.41;5525461;32;34554;-89
2023/01/17 12:13:59;;;;;;;1.40;1.10;;;;;;;8.43;72.15;98197.00;5516025;32;33728;-89
2023/01/17 12:17:44;;;;;;;1.10;1.00;;;;;;;8.34;68.42;98195.06;5494974;32;33960;-90
2023/01/17 12:21:08;;;;;;;1.77;1.23;;;;;;;8.30;68.60;98198.91;5501793;32;33938;-88
2023/01/17 12:24:20;;;;;;;2.15;1.40;;;;;;;8.40;67.40;98199.88;5531147;32;34003;-88
2023/01/17 12:27:33;;;;;;;2.95;1.60;;;;;;;8.34;71.53;98195.91;5515014;32;34028;-89
2023/01/17 12:30:39;;;;;;;3.75;2.00;;;;;;;8.19;76.64;98189.13;5511802;32;33993;-88
2023/01/17 12:34:10;;;;;;;3.12;2.00;;;;;;;7.90;79.98;98187.69;5529497;32;33852;-88
2023/01/17 12:37:35;;;;;;;2.90;1.67;;;;;;;7.96;85.02;98195.16;5524197;32;33504;-88
2023/01/17 12:41:07;;;;;;;2.62;1.48;;;;;;;8.06;81.91;98187.41;5512237;32;34597;-88
2023/01/17 12:44:14;;;;;;;2.75;1.85;;;;;;;8.00;82.42;98187.03;5514889;32;32687;-89
2023/01/17 12:47:19;;;;;;;2.00;1.80;;;;;;;7.93;81.95;98191.91;5510636;32;33011;-88
2023/01/17 12:50:31;;;;;;;2.75;1.80;;;;;;;7.91;83.23;98191.19;5517170;32;32655;-88
2023/01/17 12:53:46;;;;;;;3.25;2.92;;;;;;;7.67;82.54;98190.25;5525556;32;34595;-88
2023/01/17 12:57:03;;;;;;;2.95;2.08;;;;;;;7.75;82.74;98194.94;5515629;32;33004;-88
2023/01/17 13:00:09;;;;;;;2.10;1.62;;;;;;;7.73;82.02;98183.66;5517218;32;34857;-88
2023/01/17 13:03:41;;;;;;;2.35;1.87;;;;;;;7.84;82.19;98188.16;5513824;32;33531;-88
2023/01/17 13:06:59;;;;;;;2.12;1.92;;;;;;;7.95;80.25;98190.03;5513470;32;33259;-88
2023/01/17 13:10:29;;;;;;;1.62;1.52;;;;;;;7.53;82.39;98182.47;5523294;32;34093;-88
2023/01/17 13:13:34;;;;;;;1.87;1.67;;;;;;;7.28;81.66;98184.25;5519044;32;34119;-88
2023/01/17 13:16:56;;;;;;;2.17;1.98;;;;;;;7.26;84.08;98179.06;5519381;32;34880;-88
2023/01/17 13:20:13;;;;;;;2.33;1.92;;;;;;;7.20;82.41;98181.31;5513461;32;34392;-92
2023/01/17 13:23:28;;;;;;;4.50;2.00;;;;;;;7.15;82.82;98182.47;5514842;32;34011;-87
2023/01/17 13:26:39;;;;;;;3.00;1.98;;;;;;;7.10;85.02;98175.84;5520571;32;34548;-87
2023/01/17 13:29:56;;;;;;;2.97;2.40;;;;;;;7.10;88.59;98181.13;5516669;32;34979;-87
2023/01/17 13:33:17;;;;;;;3.25;2.30;;;;;;;6.85;91.03;98193.41;5513573;32;33938;-87
2023/01/17 13:36:58;;;;;;;2.67;2.20;;;;;;;6.77;90.99;98203.59;5523721;32;34802;-87
2023/01/17 13:40:16;;;;;;;3.37;2.28;;;;;;;6.56;94.82;98199.72;5519566;32;32343;-87
2023/01/17 13:43:33;;;;;;;2.83;2.10;;;;;;;6.53;90.94;98191.19;5517468;32;33911;-86
2023/01/17 13:47:03;;;;;;;4.43;2.75;;;;;;;6.43;92.59;98193.56;5516743;32;33792;-87
2023/01/17 13:57:28;;;;;;;2.80;2.40;;;;;;;6.54;94.13;98174.44;5520001;32;32743;-89
2023/01/17 14:00:34;;;;;;;3.60;2.60;;;;;;;6.42;98.69;98173.47;5521704;32;33989;-87
2023/01/17 14:03:49;;;;;;;4.72;2.60;;;;;;;6.47;100.00;98161.69;5517876;32;35267;-87
2023/01/17 14:06:55;;;;;;;3.97;3.05;;;;;;;6.49;100.00;98153.66;5517955;32;33839;-89
2023/01/17 14:09:58;;;;;;;4.37;3.00;;;;;;;6.36;100.00;98137.00;5521324;32;32300;-88
2023/01/17 14:13:03;;;;;;;4.60;3.10;;;;;;;6.27;100.00;98131.44;5520234;32;32709;-88
2023/01/17 14:16:21;;;;;;;6.57;3.05;;;;;;;6.19;100.00;98123.22;5529986;32;35098;-88
2023/01/17 14:19:25;;;;;;;5.12;3.72;;;;;;;6.31;100.00;98117.13;5538749;32;34749;-88
2023/01/17 14:22:34;;;;;;;5.82;3.40;;;;;;;6.17;100.00;98106.66;5543054;32;34776;-88
2023/01/17 14:25:40;;;;;;;5.25;3.35;;;;;;;6.24;100.00;98100.03;5518764;32;33676;-91
2023/01/17 14:28:43;;;;;;;3.92;3.45;;;;;;;6.21;100.00;98097.63;5525586;32;34162;-93
2023/01/17 14:31:47;;;;;;;6.53;3.83;;;;;;;6.09;100.00;98098.47;5522500;32;33698;-88
2023/01/17 14:34:56;;;;;;;7.70;3.50;;;;;;;6.14;100.00;98099.81;5527997;32;33843;-89
2023/01/17 14:38:01;;;;;;;6.45;3.50;;;;;;;6.02;100.00;98079.56;5532565;32;35154;-89
2023/01/17 14:41:12;;;;;;;5.97;3.80;;;;;;;6.01;100.00;98077.88;5569124;26;33447;-88
2023/01/17 14:44:16;;;;;;;6.05;3.95;;;;;;;6.06;100.00;98066.16;5535706;32;32866;-88
2023/01/17 14:47:19;;;;;;;5.78;4.00;;;;;;;5.90;100.00;98054.94;5534760;32;33521;-88
2023/01/17 14:50:29;;;;;;;7.80;4.40;;;;;;;5.90;100.00;98062.84;5538762;32;33581;-88
2023/01/17 14:53:32;;;;;;;7.62;3.90;;;;;;;5.90;100.00;98061.03;5540076;32;32431;-89
2023/01/17 14:56:35;;;;;;;5.53;3.70;;;;;;;5.82;100.00;98067.78;5536926;32;33513;-88
2023/01/17 14:59:38;;;;;;;8.10;3.97;;;;;;;5.80;100.00;98049.47;5545650;32;34017;-88
2023/01/17 15:02:42;;;;;;;5.35;3.70;;;;;;;5.72;100.00;98054.38;5546217;32;34645;-88
2023/01/17 15:05:49;;;;;;;6.95;4.00;;;;;;;5.70;100.00;98051.88;5538310;32;33201;-88
2023/01/17 15:08:54;;;;;;;6.25;4.03;;;;;;;5.69;100.00;98049.34;5543770;32;33876;-87
2023/01/17 15:11:58;;;;;;;7.28;4.30;;;;;;;5.69;100.00;98041.44;5544139;32;33614;-88
2023/01/17 15:15:01;;;;;;;6.12;4.32;;;;;;;5.66;100.00;98037.22;5541926;32;34808;-87
2023/01/17 15:18:13;;;;;;;9.27;4.90;;;;;;;5.64;100.00;98045.22;5520422;32;34386;-87
2023/01/17 15:21:19;;;;;;;7.57;4.78;;;;;;;5.70;100.00;98056.28;5529960;32;35057;-87
2023/01/17 15:24:28;;;;;;;6.87;4.90;;;;;;;5.61;100.00;98057.72;5531785;32;34401;-88
2023/01/17 15:27:31;;;;;;;7.45;4.80;;;;;;;5.61;100.00;98050.69;5534334;32;32538;-87
2023/01/17 15:30:34;;;;;;;7.25;5.15;;;;;;;5.61;100.00;98048.06;5540921;32;33951;-87
2023/01/17 15:33:40;;;;;;;8.63;5.50;;;;;;;5.53;100.00;98043.31;5545571;32;34114;-87
2023/01/17 15:36:47;;;;;;;8.48;5.05;;;;;;;5.53;100.00;98040.69;5534800;32;32809;-90
2023/01/17 15:39:50;;;;;;;7.65;4.85;;;;;;;5.52;100.00;98046.03;5583525;26;34202;-89
2023/01/17 15:42:57;;;;;;;7.18;4.65;;;;;;;5.48;100.00;98034.06;5577118;26;35744;-90
2023/01/17 15:46:03;;;;;;;8.73;4.68;;;;;;;5.62;100.00;98030.47;5583259;26;33911;-88
2023/01/17 15:49:13;;;;;;;7.43;4.53;;;;;;;5.47;100.00;98016.56;5535277;32;33997;-87
2023/01/17 15:52:20;;;;;;;8.73;4.72;;;;;;;5.64;100.00;98020.72;5534515;32;33661;-91
2023/01/17 15:55:34;;;;;;;7.18;4.80;;;;;;;5.57;100.00;98017.63;5538219;32;34571;-92
2023/01/17 15:58:37;;;;;;;9.23;4.32;;;;;;;5.45;100.00;98008.81;5536916;32;33982;-88
2023/01/17 16:01:43;;;;;;;6.62;4.30;;;;;;;5.55;100.00;98010.78;5543307;32;33631;-87
2023/01/17 16:04:46;;;;;;;6.03;4.43;;;;;;;5.55;100.00;98006.41;5545579;32;33038;-87
2023/01/17 16:07:51;;;;;;;6.45;4.53;;;;;;;5.51;100.00;97997.88;5545833;32;33770;-87
2023/01/17 16:11:00;;;;;;;6.25;4.30;;;;;;;5.47;100.00;98001.63;5537577;32;35226;-87
2023/01/17 16:14:06;;;;;;;6.55;3.92;;;;;;;5.44;100.00;97986.09;5541905;32;33854;-87
2023/01/17 16:17:16;;;;;;;7.72;4.57;;;;;;;5.51;100.00;97984.72;5536137;32;34041;-87
2023/01/17 16:20:22;;;;;;;6.12;4.12;;;;;;;5.57;100.00;97991.34;5537411;32;34722;-87
2023/01/17 16:23:25;;;;;;;6.82;4.70;;;;;;;5.46;100.00;97984.19;5537239;32;33647;-87
2023/01/17 16:26:28;;;;;;;6.12;4.25;;;;;;;5.35;100.00;97995.44;5536356;32;33816;-87
2023/01/17 16:29:31;;;;;;;8.57;4.50;;;;;;;5.47;100.00;97993.75;5548061;32;33827;-88
2023/01/17 16:32:34;;;;;;;6.18;4.32;;;;;;;5.35;100.00;97990.16;5547939;32;33167;-87
2023/01/17 16:35:38;;;;;;;7.03;4.03;;;;;;;5.34;100.00;97975.31;5548025;32;32912;-85
2023/01/17 16:38:47;;;;;;;5.15;3.58;;;;;;;5.33;100.00;97970.19;5547675;32;32484;-88
2023/01/17 16:41:50;;;;;;;5.75;3.90;;;;;;;5.35;100.00;97969.12;5550188;32;33910;-88
2023/01/17 16:44:52;;;;;;;5.90;3.87;;;;;;;5.38;100.00;97965.47;5531474;32;33583;-88
2023/01/17 16:47:55;;;;;;;4.32;3.45;;;;;;;5.40;100.00;97964.38;5525367;32;34531;-87
2023/01/17 16:50:58;;;;;;;5.75;3.70;;;;;;;5.28;100.00;97961.75;5510887;32;34007;-86
2023/01/17 16:54:01;;;;;;;4.65;3.50;;;;;;;5.26;100.00;97962.69;5511563;32;35221;-86
2023/01/17 16:57:03;;;;;;;4.85;3.50;;;;;;;5.27;100.00;97950.37;5512572;32;33796;-86
2023/01/17 17:00:09;;;;;;;6.20;3.75;;;;;;;5.13;100.00;97948.66;5509633;32;33055;-87
